Time;durP1;ratioP1;P1;durP2;ratioP2;P2;SDS_P1;SDS_P2;PMS_P1;PMS_P2;Temp;Humidity;BMP_temperature;BMP_pressure;BME280_temperature;BME280_humidity;BME280_pressure;Samples;Min_cycle;Max_cycle;Signal;HPM_P1;HPM_P2
2022/12/01 00:00:58;;;;;;;33.45;19.90;;;7.40;99.90;;;;;;5013531;28;20184;-81
2022/12/01 00:03:23;;;;;;;34.55;20.00;;;7.40;99.90;;;;;;4996271;28;20175;-82
2022/12/01 00:06:04;;;;;;;41.08;19.83;;;7.30;99.90;;;;;;5013463;28;20169;-83
2022/12/01 00:08:30;;;;;;;36.67;21.35;;;7.40;99.90;;;;;;4995491;28;20172;-82
2022/12/01 00:11:02;;;;;;;30.23;19.05;;;7.30;99.90;;;;;;5013304;28;20196;-80
2022/12/01 00:13:29;;;;;;;39.10;20.85;;;7.20;99.90;;;;;;4995809;28;20203;-80
2022/12/01 00:15:54;;;;;;;36.03;20.52;;;7.20;99.90;;;;;;5013423;28;20230;-79
2022/12/01 00:18:20;;;;;;;38.17;20.40;;;7.20;99.90;;;;;;5013285;28;20192;-80
2022/12/01 00:20:49;;;;;;;35.45;21.08;;;7.30;99.90;;;;;;5012813;28;20204;-82
2022/12/01 00:23:15;;;;;;;44.63;21.13;;;7.50;99.90;;;;;;5012863;28;20582;-83
2022/12/01 00:25:41;;;;;;;35.97;19.48;;;7.70;99.90;;;;;;5012926;28;20251;-86
2022/12/01 00:28:06;;;;;;;37.03;21.42;;;7.50;99.90;;;;;;5013189;28;20183;-80
2022/12/01 00:30:32;;;;;;;31.75;20.48;;;7.50;99.90;;;;;;5012430;28;20691;-81
2022/12/01 00:32:57;;;;;;;33.33;19.92;;;7.60;99.90;;;;;;4995121;28;20347;-87
2022/12/01 00:35:23;;;;;;;40.42;19.55;;;7.80;99.90;;;;;;5013256;28;20177;-80
2022/12/01 00:37:49;;;;;;;29.17;18.85;;;7.70;99.90;;;;;;5013251;28;20176;-82
2022/12/01 00:40:14;;;;;;;35.28;19.30;;;7.70;99.90;;;;;;5012802;28;20235;-80
2022/12/01 00:42:40;;;;;;;30.42;19.63;;;7.70;99.90;;;;;;4995416;28;20301;-83
2022/12/01 00:45:06;;;;;;;29.63;18.15;;;7.70;99.90;;;;;;5012917;28;20200;-80
2022/12/01 00:47:32;;;;;;;30.63;19.17;;;7.80;99.90;;;;;;5012799;28;20568;-80
2022/12/01 00:49:57;;;;;;;33.70;20.13;;;7.90;99.90;;;;;;5013016;28;20191;-82
2022/12/01 00:52:23;;;;;;;26.08;17.70;;;8.00;99.90;;;;;;4984861;28;20231;-82
2022/12/01 00:54:48;;;;;;;35.20;20.00;;;8.00;99.90;;;;;;4993421;28;20169;-81
2022/12/01 00:57:14;;;;;;;31.02;18.67;;;8.30;99.90;;;;;;4993082;28;20165;-81
2022/12/01 00:59:40;;;;;;;34.50;20.40;;;8.30;99.90;;;;;;4993549;28;20219;-81
2022/12/01 01:02:06;;;;;;;27.88;18.13;;;8.20;99.90;;;;;;4975996;28;20177;-81
2022/12/01 01:04:34;;;;;;;29.38;19.17;;;8.20;99.90;;;;;;4975619;28;20173;-81
2022/12/01 01:06:59;;;;;;;32.47;18.80;;;8.20;99.90;;;;;;4992940;28;20170;-83
2022/12/01 01:09:25;;;;;;;29.08;18.17;;;7.90;99.90;;;;;;4975456;28;20180;-80
2022/12/01 01:11:52;;;;;;;35.55;19.35;;;7.90;99.90;;;;;;4975668;28;20215;-84
2022/12/01 01:14:18;;;;;;;35.83;19.60;;;7.80;99.90;;;;;;4993115;28;20169;-80
2022/12/01 01:16:43;;;;;;;30.10;18.48;;;7.90;99.90;;;;;;4975466;28;20626;-81
2022/12/01 01:19:09;;;;;;;31.15;19.80;;;7.90;99.90;;;;;;4975377;28;20211;-81
2022/12/01 01:21:35;;;;;;;29.80;18.42;;;7.90;99.90;;;;;;4992993;28;20185;-84
2022/12/01 01:24:00;;;;;;;33.22;19.05;;;7.80;99.90;;;;;;4993366;28;20174;-80
2022/12/01 01:26:29;;;;;;;32.17;20.52;;;7.80;99.90;;;;;;4975071;28;20161;-81
2022/12/01 01:29:00;;;;;;;31.40;20.27;;;7.80;99.90;;;;;;4992198;28;20189;-80
2022/12/01 01:31:29;;;;;;;35.50;20.80;;;7.80;99.90;;;;;;4992965;28;20219;-79
2022/12/01 01:33:55;;;;;;;35.95;21.15;;;7.90;99.90;;;;;;4994525;28;20207;-80
2022/12/01 01:36:21;;;;;;;31.88;20.52;;;7.70;99.90;;;;;;4962744;28;20199;-81
2022/12/01 01:38:50;;;;;;;39.50;21.02;;;7.90;99.90;;;;;;4993126;28;20193;-82
2022/12/01 01:41:17;;;;;;;38.75;20.58;;;8.00;99.90;;;;;;4978742;28;20192;-80
2022/12/01 01:43:51;;;;;;;38.03;22.65;;;7.90;99.90;;;;;;5004186;28;20225;-80
2022/12/01 01:46:25;;;;;;;36.83;19.73;;;7.60;99.90;;;;;;5018651;28;20180;-81
2022/12/01 01:48:59;;;;;;;33.67;19.38;;;7.60;99.90;;;;;;5007301;28;20171;-83
2022/12/01 01:51:34;;;;;;;36.45;21.10;;;7.70;99.90;;;;;;4998254;28;20189;-82
2022/12/01 01:54:23;;;;;;;40.95;23.15;;;7.70;99.90;;;;;;4980149;28;20536;-85
2022/12/01 01:56:50;;;;;;;33.90;21.90;;;7.50;99.90;;;;;;4998981;28;20181;-81
2022/12/01 01:59:22;;;;;;;35.75;20.83;;;7.50;99.90;;;;;;4980476;28;20208;-82
2022/12/01 02:01:55;;;;;;;38.67;22.00;;;7.50;99.90;;;;;;4980738;28;20173;-86
2022/12/01 02:04:23;;;;;;;38.53;21.90;;;7.60;99.90;;;;;;4997837;28;20220;-82
2022/12/01 02:06:48;;;;;;;40.47;22.10;;;7.70;99.90;;;;;;4998006;28;20199;-81
2022/12/01 02:09:14;;;;;;;39.60;21.88;;;7.60;99.90;;;;;;4982408;28;20200;-81
2022/12/01 02:11:58;;;;;;;44.38;23.77;;;7.70;99.90;;;;;;5001393;28;20169;-81
2022/12/01 02:14:39;;;;;;;38.03;22.58;;;7.60;99.90;;;;;;5000996;28;20180;-82
2022/12/01 02:17:19;;;;;;;37.45;22.20;;;7.50;99.90;;;;;;4980407;28;20177;-82
2022/12/01 02:19:51;;;;;;;36.45;20.95;;;7.40;99.90;;;;;;4979708;28;20221;-82
2022/12/01 02:22:42;;;;;;;39.38;20.73;;;7.40;99.90;;;;;;4996859;28;20169;-79
2022/12/01 02:25:31;;;;;;;43.88;22.58;;;7.20;99.90;;;;;;4997158;28;20184;-84
2022/12/01 02:28:46;;;;;;;43.20;21.35;;;7.30;99.90;;;;;;4989640;28;20217;-81
2022/12/01 02:31:22;;;;;;;35.03;19.50;;;7.20;99.90;;;;;;4980182;28;20197;-81
2022/12/01 02:33:54;;;;;;;35.38;21.15;;;6.80;99.90;;;;;;4979810;28;20204;-83
2022/12/01 02:36:41;;;;;;;34.83;20.15;;;6.80;99.90;;;;;;4997390;28;20204;-81
2022/12/01 02:39:34;;;;;;;46.85;20.50;;;6.90;99.90;;;;;;4980080;28;20236;-80
2022/12/01 02:42:10;;;;;;;37.50;20.45;;;7.00;99.90;;;;;;4997831;28;20245;-81
2022/12/01 02:44:42;;;;;;;40.33;20.92;;;7.00;99.90;;;;;;4999023;28;20248;-82
2022/12/01 02:47:16;;;;;;;39.20;19.88;;;7.00;99.90;;;;;;4998426;28;20529;-82
2022/12/01 02:49:48;;;;;;;39.33;21.42;;;7.10;99.90;;;;;;4982145;28;20192;-80
2022/12/01 02:52:15;;;;;;;38.40;20.08;;;7.10;99.90;;;;;;4981992;28;20267;-80
2022/12/01 02:54:44;;;;;;;37.83;21.02;;;7.20;99.90;;;;;;4980068;28;20174;-81
2022/12/01 02:57:14;;;;;;;40.88;20.05;;;7.10;99.90;;;;;;4980790;28;20169;-81
2022/12/01 02:59:57;;;;;;;30.70;18.23;;;7.40;99.90;;;;;;4999336;28;20205;-88
2022/12/01 03:02:42;;;;;;;29.90;18.83;;;7.40;99.90;;;;;;4981839;28;20169;-81
2022/12/01 03:05:21;;;;;;;37.03;19.73;;;7.40;99.90;;;;;;4999620;28;20179;-81
2022/12/01 03:07:49;;;;;;;29.83;17.92;;;7.20;99.90;;;;;;4999569;28;20247;-82
2022/12/01 03:10:56;;;;;;;43.47;20.05;;;6.90;99.90;;;;;;4981779;28;20288;-79
2022/12/01 03:13:45;;;;;;;37.70;19.08;;;7.00;99.90;;;;;;4979811;28;20173;-79
2022/12/01 03:16:32;;;;;;;34.38;18.13;;;7.00;99.90;;;;;;4979691;28;20185;-79
2022/12/01 03:19:03;;;;;;;39.47;19.00;;;7.10;99.90;;;;;;4996774;28;20205;-80
2022/12/01 03:21:34;;;;;;;34.03;18.92;;;7.10;99.90;;;;;;4979607;28;20193;-79
2022/12/01 03:24:05;;;;;;;38.65;19.15;;;7.20;99.90;;;;;;4997884;28;20244;-80
2022/12/01 03:26:35;;;;;;;43.75;20.58;;;6.80;99.90;;;;;;4997289;28;20172;-80
2022/12/01 03:29:19;;;;;;;37.47;20.40;;;6.80;99.90;;;;;;4996627;28;20173;-86
2022/12/01 03:31:54;;;;;;;38.88;20.92;;;6.70;99.90;;;;;;4978579;28;20173;-81
2022/12/01 03:34:26;;;;;;;39.25;20.50;;;6.70;99.90;;;;;;4998878;28;20164;-80
2022/12/01 03:36:56;;;;;;;35.42;20.00;;;6.80;99.90;;;;;;4997524;28;20252;-79
2022/12/01 03:39:27;;;;;;;35.38;20.42;;;7.10;99.90;;;;;;4995732;28;20241;-83
2022/12/01 03:42:08;;;;;;;39.97;21.63;;;7.30;99.90;;;;;;4998814;28;20165;-81
2022/12/01 03:44:46;;;;;;;43.05;22.77;;;7.50;99.90;;;;;;4998883;28;20169;-79
2022/12/01 03:47:21;;;;;;;43.33;22.42;;;7.30;99.90;;;;;;4979482;28;20188;-83
2022/12/01 03:49:50;;;;;;;42.00;22.60;;;7.30;99.90;;;;;;4996545;28;20185;-81
2022/12/01 03:52:40;;;;;;;40.38;20.48;;;7.40;99.90;;;;;;4996705;28;20260;-80
2022/12/01 03:55:23;;;;;;;51.65;24.42;;;7.10;99.90;;;;;;4978702;28;20173;-80
2022/12/01 03:58:15;;;;;;;54.53;24.10;;;7.20;99.90;;;;;;4996067;28;20168;-81
2022/12/01 04:00:42;;;;;;;46.15;21.70;;;7.20;99.90;;;;;;4989040;28;20225;-80
2022/12/01 04:03:17;;;;;;;40.25;22.25;;;7.20;99.90;;;;;;4978856;28;21327;-83
2022/12/01 04:05:43;;;;;;;46.03;22.45;;;7.30;99.90;;;;;;4977329;28;20168;-81
2022/12/01 04:08:10;;;;;;;39.85;22.10;;;7.30;99.90;;;;;;5000718;28;20176;-81
2022/12/01 04:10:38;;;;;;;41.17;20.77;;;7.40;99.90;;;;;;4991584;28;20200;-80
2022/12/01 04:13:04;;;;;;;41.95;21.67;;;7.20;99.90;;;;;;4984324;28;20236;-85
2022/12/01 04:15:30;;;;;;;43.80;22.60;;;7.10;99.90;;;;;;4999935;28;20177;-81
2022/12/01 04:17:55;;;;;;;44.85;21.98;;;6.90;99.90;;;;;;5000008;28;20169;-80
2022/12/01 04:20:24;;;;;;;42.78;21.30;;;6.90;99.90;;;;;;5001459;28;20219;-81
2022/12/01 04:22:49;;;;;;;43.33;21.30;;;7.00;99.90;;;;;;4984013;28;20169;-81
2022/12/01 04:25:15;;;;;;;40.90;22.88;;;7.20;99.90;;;;;;4981553;28;20200;-81
2022/12/01 04:27:41;;;;;;;43.97;21.05;;;7.20;99.90;;;;;;4983844;28;20169;-80
2022/12/01 04:30:07;;;;;;;43.58;21.42;;;7.20;99.90;;;;;;5007543;28;20229;-80
2022/12/01 04:32:38;;;;;;;43.63;22.45;;;7.00;99.90;;;;;;5013615;28;20199;-80
2022/12/01 04:35:06;;;;;;;41.15;20.80;;;6.80;99.90;;;;;;5001614;28;20180;-81
2022/12/01 04:37:32;;;;;;;34.67;19.35;;;6.70;99.90;;;;;;4998947;28;20161;-79
2022/12/01 04:39:59;;;;;;;36.08;20.48;;;7.00;99.90;;;;;;5002159;28;20769;-79
2022/12/01 04:42:24;;;;;;;45.42;20.20;;;6.80;99.90;;;;;;4998484;28;20161;-80
2022/12/01 04:44:50;;;;;;;40.42;19.90;;;7.00;99.90;;;;;;4981680;28;20177;-81
2022/12/01 04:47:17;;;;;;;40.47;19.98;;;7.20;99.90;;;;;;4998120;28;20666;-80
2022/12/01 04:49:42;;;;;;;37.50;19.90;;;7.40;99.90;;;;;;4999406;28;20204;-82
2022/12/01 04:52:08;;;;;;;39.83;19.00;;;7.40;99.90;;;;;;4997004;28;20169;-81
2022/12/01 04:54:34;;;;;;;43.38;19.60;;;7.40;99.90;;;;;;4995489;28;20726;-81
2022/12/01 04:56:59;;;;;;;40.33;20.20;;;7.20;99.90;;;;;;4996562;28;20303;-82
2022/12/01 04:59:25;;;;;;;41.78;20.20;;;7.20;99.90;;;;;;4977241;28;20756;-80
2022/12/01 05:01:50;;;;;;;35.50;18.35;;;7.20;99.90;;;;;;4994038;28;20161;-81
2022/12/01 05:04:16;;;;;;;33.53;17.45;;;6.90;99.90;;;;;;4993200;28;20209;-81
2022/12/01 05:06:42;;;;;;;34.33;19.42;;;7.20;99.90;;;;;;4975292;28;20235;-82
2022/12/01 05:09:14;;;;;;;35.00;17.92;;;7.30;99.90;;;;;;4993158;28;20637;-82
2022/12/01 05:11:39;;;;;;;39.65;19.48;;;7.10;99.90;;;;;;4992941;28;20212;-82
2022/12/01 05:14:05;;;;;;;34.08;18.00;;;7.00;99.90;;;;;;4975464;28;20276;-81
2022/12/01 05:16:32;;;;;;;34.40;17.20;;;7.10;99.90;;;;;;4975640;28;20224;-81
2022/12/01 05:21:50;;;;;;;32.92;18.10;;;7.10;99.90;;;;;;4996724;28;20188;-82
2022/12/01 05:24:17;;;;;;;40.88;19.77;;;7.10;99.90;;;;;;4996882;28;20177;-81
2022/12/01 05:26:43;;;;;;;35.83;19.75;;;7.30;99.90;;;;;;4996800;28;20173;-82
2022/12/01 05:29:11;;;;;;;39.80;19.25;;;7.20;99.90;;;;;;4979417;28;20169;-81
2022/12/01 05:31:38;;;;;;;39.08;21.05;;;7.00;99.90;;;;;;4996384;28;20193;-81
2022/12/01 05:34:04;;;;;;;37.63;19.60;;;7.00;99.90;;;;;;4996984;28;20174;-82
2022/12/01 05:36:30;;;;;;;40.33;20.58;;;7.10;99.90;;;;;;4996562;28;20215;-82
2022/12/01 05:38:56;;;;;;;44.95;20.95;;;7.20;99.90;;;;;;4996558;28;20225;-81
2022/12/01 05:41:21;;;;;;;33.60;19.05;;;7.40;99.90;;;;;;4996539;28;20546;-82
2022/12/01 05:43:47;;;;;;;45.28;20.30;;;7.70;99.90;;;;;;4996802;28;20170;-83
2022/12/01 05:46:13;;;;;;;39.83;21.00;;;7.80;99.90;;;;;;4996585;28;20685;-84
2022/12/01 05:48:38;;;;;;;44.50;20.90;;;7.90;99.90;;;;;;4996654;28;20165;-81
2022/12/01 05:51:09;;;;;;;44.67;19.02;;;7.80;99.90;;;;;;4996282;28;20196;-81
2022/12/01 05:53:35;;;;;;;40.25;18.92;;;7.70;99.90;;;;;;4996251;28;20165;-81
2022/12/01 05:56:01;;;;;;;44.00;20.17;;;7.50;99.90;;;;;;4984444;28;20181;-81
2022/12/01 05:58:27;;;;;;;46.10;19.77;;;7.50;99.90;;;;;;4998964;28;20177;-83
2022/12/01 06:00:52;;;;;;;44.03;19.30;;;7.40;99.90;;;;;;5002453;28;20215;-78
2022/12/01 06:03:18;;;;;;;41.50;20.20;;;7.40;99.90;;;;;;4980755;28;20817;-79
2022/12/01 06:05:43;;;;;;;45.55;19.88;;;7.50;99.90;;;;;;4980044;28;20169;-80
2022/12/01 06:08:09;;;;;;;37.80;19.30;;;7.70;99.90;;;;;;4997679;28;20177;-81
2022/12/01 06:10:34;;;;;;;42.92;20.27;;;7.70;99.90;;;;;;4997869;28;20184;-80
2022/12/01 06:13:00;;;;;;;43.65;19.85;;;7.50;99.90;;;;;;4998896;28;20252;-81
2022/12/01 06:15:26;;;;;;;43.42;19.77;;;7.30;99.90;;;;;;5000524;28;20178;-81
2022/12/01 06:17:52;;;;;;;39.08;18.77;;;7.30;99.90;;;;;;5000731;28;20665;-80
2022/12/01 06:20:17;;;;;;;43.10;18.15;;;7.50;99.90;;;;;;4984208;28;20301;-80
2022/12/01 06:22:43;;;;;;;41.38;18.45;;;7.40;99.90;;;;;;5002703;28;20169;-81
2022/12/01 06:25:09;;;;;;;42.10;18.75;;;7.50;99.90;;;;;;4985331;28;20177;-80
2022/12/01 06:27:35;;;;;;;42.78;18.67;;;7.50;99.90;;;;;;4981408;28;20502;-81
2022/12/01 06:30:02;;;;;;;38.22;18.30;;;7.50;99.90;;;;;;4978919;28;20224;-81
2022/12/01 06:32:28;;;;;;;39.40;18.30;;;7.60;99.90;;;;;;4979645;28;20192;-80
2022/12/01 06:34:53;;;;;;;36.30;17.88;;;7.70;99.90;;;;;;4981074;28;20169;-83
2022/12/01 06:37:19;;;;;;;39.25;18.02;;;7.40;99.90;;;;;;4988656;28;20173;-81
2022/12/01 06:39:44;;;;;;;51.25;20.33;;;7.40;99.90;;;;;;4981664;28;20221;-80
2022/12/01 06:42:11;;;;;;;44.67;19.70;;;7.20;99.90;;;;;;4985824;28;20165;-80
2022/12/01 06:44:36;;;;;;;48.22;20.33;;;7.20;99.90;;;;;;5001086;28;20180;-80
2022/12/01 06:47:02;;;;;;;36.67;17.92;;;7.40;99.90;;;;;;4981541;28;20185;-80
2022/12/01 06:49:28;;;;;;;44.13;20.80;;;7.30;99.90;;;;;;4997975;28;20174;-82
2022/12/01 06:51:54;;;;;;;41.13;19.60;;;7.40;99.90;;;;;;5000753;28;20244;-80
2022/12/01 06:54:20;;;;;;;51.38;21.65;;;7.40;99.90;;;;;;4984304;28;20180;-81
2022/12/01 06:56:45;;;;;;;46.00;19.25;;;7.60;99.90;;;;;;4982910;28;20169;-81
2022/12/01 06:59:11;;;;;;;38.67;18.27;;;7.70;99.90;;;;;;4981650;28;20205;-80
2022/12/01 07:01:37;;;;;;;44.97;19.85;;;7.70;99.90;;;;;;4980870;28;20188;-82
2022/12/01 07:04:03;;;;;;;37.97;19.65;;;7.80;99.90;;;;;;4981924;28;20201;-80
2022/12/01 07:06:29;;;;;;;39.13;19.13;;;7.70;99.90;;;;;;4998411;28;20626;-79
2022/12/01 07:08:55;;;;;;;40.17;19.40;;;7.40;99.90;;;;;;4980361;28;20170;-80
2022/12/01 07:11:21;;;;;;;41.28;19.65;;;7.60;99.90;;;;;;4998415;28;20188;-80
2022/12/01 07:13:49;;;;;;;48.58;20.98;;;7.40;99.90;;;;;;4999377;28;20244;-81
2022/12/01 07:16:16;;;;;;;48.72;20.40;;;7.30;99.90;;;;;;5006566;28;20165;-81
2022/12/01 07:18:43;;;;;;;42.13;20.13;;;7.30;99.90;;;;;;4995453;28;20170;-80
2022/12/01 07:21:12;;;;;;;43.58;19.27;;;7.10;99.90;;;;;;4983799;28;20203;-85
2022/12/01 07:23:41;;;;;;;47.03;19.27;;;7.00;99.90;;;;;;4998079;28;20189;-81
2022/12/01 07:26:13;;;;;;;44.05;21.05;;;7.10;99.90;;;;;;4997578;28;20178;-79
2022/12/01 07:28:38;;;;;;;34.13;18.55;;;6.80;99.90;;;;;;4998003;28;20237;-81
2022/12/01 07:31:06;;;;;;;43.20;20.20;;;6.90;99.90;;;;;;5001110;28;20208;-81
2022/12/01 07:33:36;;;;;;;42.92;19.60;;;7.00;99.90;;;;;;5017952;28;20189;-80
2022/12/01 07:36:02;;;;;;;39.88;20.40;;;7.00;99.90;;;;;;5000054;28;20663;-79
2022/12/01 07:38:29;;;;;;;56.05;20.23;;;6.90;99.90;;;;;;5000643;28;20179;-79
2022/12/01 07:41:08;;;;;;;42.10;19.33;;;7.00;99.90;;;;;;5015262;28;20595;-81
2022/12/01 07:43:34;;;;;;;42.70;18.35;;;7.00;99.90;;;;;;4997335;28;20166;-81
2022/12/01 07:46:14;;;;;;;39.58;18.55;;;7.10;99.90;;;;;;4997541;28;20199;-78
2022/12/01 07:48:40;;;;;;;30.48;17.58;;;7.00;99.90;;;;;;5014309;28;20168;-80
2022/12/01 07:51:08;;;;;;;42.67;20.05;;;7.20;99.90;;;;;;4996877;28;20228;-81
2022/12/01 07:53:34;;;;;;;52.90;21.15;;;7.30;99.90;;;;;;5013972;28;20165;-83
2022/12/01 07:56:00;;;;;;;40.65;19.02;;;7.50;99.90;;;;;;5014583;28;20192;-81
2022/12/01 07:58:26;;;;;;;39.78;18.95;;;7.40;99.90;;;;;;5015339;28;20187;-79
2022/12/01 08:00:52;;;;;;;40.85;19.33;;;7.40;99.90;;;;;;4996387;28;20196;-79
2022/12/01 08:03:18;;;;;;;37.05;18.25;;;7.40;99.90;;;;;;5014279;28;20171;-85
2022/12/01 08:05:44;;;;;;;37.72;18.75;;;7.20;99.90;;;;;;5015389;28;20699;-80
2022/12/01 08:08:10;;;;;;;39.97;19.90;;;7.50;99.90;;;;;;5013216;28;20169;-82
2022/12/01 08:10:36;;;;;;;40.50;20.08;;;7.70;99.90;;;;;;5013035;28;20193;-81
2022/12/01 08:13:02;;;;;;;31.75;18.23;;;7.50;99.90;;;;;;4995805;28;20164;-81
2022/12/01 08:15:28;;;;;;;37.65;18.50;;;7.70;99.90;;;;;;4995791;28;20180;-81
2022/12/01 08:17:53;;;;;;;34.33;19.15;;;7.70;99.90;;;;;;4995765;28;20177;-80
2022/12/01 08:20:20;;;;;;;39.78;19.48;;;7.70;99.90;;;;;;5012966;28;20661;-82
2022/12/01 08:22:46;;;;;;;36.30;20.83;;;7.80;99.90;;;;;;4995506;28;20171;-81
2022/12/01 08:25:11;;;;;;;41.70;18.83;;;7.70;99.90;;;;;;5013248;28;20180;-80
2022/12/01 08:27:37;;;;;;;36.78;19.70;;;7.40;99.90;;;;;;5000117;28;20223;-82
2022/12/01 08:30:03;;;;;;;38.22;19.13;;;7.40;99.90;;;;;;4998311;28;20189;-79
2022/12/01 08:32:29;;;;;;;40.63;18.75;;;7.50;99.90;;;;;;4993609;28;20227;-79
2022/12/01 08:34:54;;;;;;;40.80;19.92;;;7.70;99.90;;;;;;5010557;28;20200;-79
2022/12/01 08:37:20;;;;;;;38.28;19.00;;;7.50;99.90;;;;;;5014931;28;20180;-83
2022/12/01 08:39:45;;;;;;;31.38;17.73;;;7.40;99.90;;;;;;5015953;28;20204;-80
2022/12/01 08:42:11;;;;;;;39.83;19.35;;;7.50;99.90;;;;;;4996378;28;20161;-79
2022/12/01 08:44:37;;;;;;;38.40;19.73;;;7.40;99.90;;;;;;5013300;28;20251;-83
2022/12/01 08:47:03;;;;;;;38.42;19.60;;;7.30;99.90;;;;;;4995307;28;20176;-79
2022/12/01 08:49:28;;;;;;;33.45;18.73;;;7.40;99.90;;;;;;5011414;28;20195;-83
2022/12/01 08:51:55;;;;;;;36.40;19.30;;;7.70;99.90;;;;;;5012276;28;20176;-79
2022/12/01 08:54:21;;;;;;;35.00;19.33;;;7.80;99.90;;;;;;4999604;28;20176;-79
2022/12/01 08:56:46;;;;;;;36.92;18.95;;;7.90;99.90;;;;;;4993143;28;20168;-81
2022/12/01 08:59:12;;;;;;;31.63;19.00;;;8.00;99.90;;;;;;4991131;28;20204;-80
2022/12/01 09:01:53;;;;;;;40.22;20.58;;;8.10;99.90;;;;;;4991767;28;20192;-79
2022/12/01 09:04:21;;;;;;;39.42;19.27;;;8.10;99.90;;;;;;4993091;28;20178;-79
2022/12/01 09:06:48;;;;;;;35.28;19.60;;;8.20;99.90;;;;;;4991798;28;20181;-80
2022/12/01 09:09:19;;;;;;;35.17;19.45;;;8.20;99.90;;;;;;4993032;28;20228;-80
2022/12/01 09:11:46;;;;;;;44.45;21.13;;;8.10;99.90;;;;;;4991822;28;20184;-80
2022/12/01 09:14:12;;;;;;;37.30;19.77;;;8.10;99.90;;;;;;4991988;28;20184;-81
2022/12/01 09:16:39;;;;;;;37.63;19.13;;;8.10;99.90;;;;;;4990953;28;20654;-79
2022/12/01 09:19:05;;;;;;;44.17;20.52;;;8.20;99.90;;;;;;4991129;28;20201;-79
2022/12/01 09:21:33;;;;;;;39.13;21.83;;;8.10;99.90;;;;;;4991896;28;20275;-80
2022/12/01 09:24:00;;;;;;;37.15;19.95;;;8.00;99.90;;;;;;4991696;28;20598;-79
2022/12/01 09:26:26;;;;;;;44.25;20.50;;;8.10;99.90;;;;;;4991716;28;20529;-79
2022/12/01 09:28:53;;;;;;;42.80;20.67;;;8.00;99.90;;;;;;4992873;28;20253;-80
2022/12/01 09:31:22;;;;;;;41.67;22.60;;;7.90;99.90;;;;;;4992952;28;20181;-79
2022/12/01 09:33:52;;;;;;;34.65;19.38;;;7.90;99.90;;;;;;4991455;28;20181;-80
2022/12/01 09:36:18;;;;;;;44.47;20.40;;;8.00;99.90;;;;;;4992441;28;20177;-80
2022/12/01 09:38:44;;;;;;;39.85;20.23;;;7.90;99.90;;;;;;4992117;28;20725;-88
2022/12/01 09:41:24;;;;;;;34.30;19.15;;;7.90;99.90;;;;;;4991629;28;20217;-81
2022/12/01 09:44:15;;;;;;;39.13;20.48;;;7.60;99.90;;;;;;4991772;28;20177;-80
2022/12/01 09:46:48;;;;;;;41.42;19.73;;;7.60;99.90;;;;;;4992959;28;20554;-80
2022/12/01 09:49:34;;;;;;;42.05;20.40;;;7.40;99.90;;;;;;4992735;28;20169;-79
2022/12/01 09:51:59;;;;;;;46.95;21.88;;;7.70;99.90;;;;;;4992625;28;20499;-80
2022/12/01 09:54:27;;;;;;;40.22;22.17;;;7.80;99.90;;;;;;4993251;28;20166;-81
2022/12/01 09:56:54;;;;;;;41.88;20.90;;;8.00;99.90;;;;;;4994287;28;20803;-80
2022/12/01 09:59:27;;;;;;;39.13;19.75;;;8.20;99.90;;;;;;5000497;28;20236;-80
2022/12/01 10:02:00;;;;;;;43.15;20.88;;;8.40;99.90;;;;;;4995928;28;20538;-80
2022/12/01 10:04:39;;;;;;;40.00;21.00;;;8.40;99.90;;;;;;4994116;28;20208;-80
2022/12/01 10:07:22;;;;;;;41.92;19.63;;;8.30;99.90;;;;;;4998363;28;20203;-80
2022/12/01 10:09:56;;;;;;;32.95;19.75;;;8.00;99.90;;;;;;4997550;28;20752;-80
2022/12/01 10:12:26;;;;;;;43.60;20.65;;;8.00;99.90;;;;;;4996365;28;20184;-80
2022/12/01 10:15:13;;;;;;;52.30;21.10;;;8.10;99.90;;;;;;4994366;28;20626;-80
2022/12/01 10:18:03;;;;;;;49.25;19.50;;;8.40;99.90;;;;;;4992059;28;20185;-80
2022/12/01 10:21:01;;;;;;;37.55;20.70;;;8.50;99.90;;;;;;4995659;28;20219;-79
2022/12/01 10:23:45;;;;;;;37.88;20.88;;;8.50;99.90;;;;;;4995980;28;20163;-81
2022/12/01 10:26:31;;;;;;;36.63;18.85;;;8.30;99.90;;;;;;4995778;28;20173;-80
2022/12/01 10:29:25;;;;;;;42.05;20.50;;;8.30;99.90;;;;;;4995956;28;20244;-81
2022/12/01 10:32:09;;;;;;;39.55;20.08;;;8.20;99.90;;;;;;4994327;28;20650;-80
2022/12/01 10:34:38;;;;;;;45.78;21.17;;;8.40;99.90;;;;;;4995596;28;20168;-80
2022/12/01 10:37:05;;;;;;;37.55;20.75;;;8.60;99.90;;;;;;4995583;28;20530;-81
2022/12/01 10:39:40;;;;;;;38.08;20.85;;;8.60;99.90;;;;;;4995186;28;20208;-80
2022/12/01 10:42:36;;;;;;;34.80;19.55;;;8.50;99.90;;;;;;4994435;28;20256;-80
2022/12/01 10:45:05;;;;;;;41.80;20.85;;;8.60;99.90;;;;;;4994327;28;20272;-80
2022/12/01 10:47:31;;;;;;;44.03;19.05;;;8.80;99.90;;;;;;4995359;28;20177;-81
2022/12/01 10:49:57;;;;;;;37.90;19.77;;;8.80;99.90;;;;;;4995911;28;20189;-80
2022/12/01 10:52:40;;;;;;;51.03;20.73;;;8.50;99.90;;;;;;4995557;28;20165;-80
2022/12/01 10:55:33;;;;;;;33.30;18.77;;;8.60;99.90;;;;;;4994240;28;20205;-83
2022/12/01 10:58:04;;;;;;;39.95;19.20;;;8.20;99.90;;;;;;4994957;28;20248;-82
2022/12/01 11:00:35;;;;;;;45.65;20.17;;;8.30;99.90;;;;;;4994330;28;20209;-81
2022/12/01 11:03:02;;;;;;;30.75;16.80;;;8.20;99.90;;;;;;4996784;28;20220;-80
2022/12/01 11:05:35;;;;;;;34.83;18.55;;;8.20;99.90;;;;;;4997480;28;20169;-80
2022/12/01 11:08:01;;;;;;;36.42;19.05;;;8.00;99.90;;;;;;4996159;28;20149;-86
2022/12/01 11:10:35;;;;;;;37.95;18.65;;;8.20;99.90;;;;;;5004466;28;20282;-85
2022/12/01 11:13:24;;;;;;;30.25;17.67;;;8.50;99.90;;;;;;4999203;28;20171;-81
2022/12/01 11:15:54;;;;;;;29.75;16.80;;;8.60;99.90;;;;;;4997448;28;20200;-79
2022/12/01 11:18:32;;;;;;;41.30;17.98;;;8.50;99.90;;;;;;5015260;28;20657;-79
2022/12/01 11:21:26;;;;;;;36.28;18.95;;;8.50;99.90;;;;;;5015118;28;20196;-81
2022/12/01 11:23:54;;;;;;;35.45;17.40;;;8.80;99.90;;;;;;5015695;28;20165;-79
2022/12/01 11:26:25;;;;;;;31.88;18.35;;;8.90;99.90;;;;;;5014927;28;20172;-80
2022/12/01 11:28:57;;;;;;;43.78;18.45;;;9.00;99.90;;;;;;5014166;28;20222;-80
2022/12/01 11:31:43;;;;;;;37.53;16.75;;;9.10;99.90;;;;;;5014209;28;20566;-79
2022/12/01 11:34:20;;;;;;;40.38;17.00;;;9.20;99.90;;;;;;5014495;28;20172;-81
2022/12/01 11:36:48;;;;;;;31.63;16.25;;;8.90;99.90;;;;;;4996815;28;20164;-79
2022/12/01 11:39:24;;;;;;;29.58;16.40;;;8.80;99.90;;;;;;5014218;28;20204;-80
2022/12/01 11:41:55;;;;;;;33.67;16.95;;;8.80;99.90;;;;;;4996440;28;20187;-80
2022/12/01 11:44:21;;;;;;;38.53;18.45;;;8.80;99.90;;;;;;4996238;28;20528;-79
2022/12/01 11:46:47;;;;;;;33.60;17.02;;;8.70;99.90;;;;;;5015046;28;20168;-82
2022/12/01 11:49:22;;;;;;;34.42;17.27;;;8.90;99.90;;;;;;4999662;28;20173;-83
2022/12/01 11:51:48;;;;;;;28.83;15.60;;;9.00;99.90;;;;;;5017887;28;20186;-81
2022/12/01 11:54:23;;;;;;;25.65;16.33;;;9.10;99.90;;;;;;5013678;28;20167;-81
2022/12/01 11:56:50;;;;;;;25.52;13.85;;;8.90;99.90;;;;;;4996517;28;20199;-90
2022/12/01 11:59:22;;;;;;;27.92;15.50;;;8.90;99.90;;;;;;4997168;28;20236;-84
2022/12/01 12:01:55;;;;;;;27.17;15.98;;;9.20;99.90;;;;;;5013627;28;20172;-82
2022/12/01 12:04:42;;;;;;;28.70;16.35;;;9.20;99.90;;;;;;5014027;28;20252;-81
2022/12/01 12:07:25;;;;;;;32.67;17.67;;;9.10;99.90;;;;;;4995742;28;20177;-82
2022/12/01 12:10:28;;;;;;;31.17;16.58;;;8.90;99.90;;;;;;4995904;28;20235;-82
2022/12/01 12:13:22;;;;;;;32.65;17.25;;;8.80;99.90;;;;;;4995322;28;20198;-79
2022/12/01 12:16:18;;;;;;;38.80;19.20;;;8.70;99.90;;;;;;5013425;28;20173;-81
2022/12/01 12:18:43;;;;;;;34.53;17.45;;;8.50;99.90;;;;;;5013696;28;20251;-81
2022/12/01 12:21:36;;;;;;;32.92;16.92;;;8.70;99.90;;;;;;5013833;28;20267;-81
2022/12/01 12:24:25;;;;;;;36.40;19.80;;;8.60;99.90;;;;;;5013279;28;20177;-80
2022/12/01 12:27:08;;;;;;;42.47;18.63;;;8.40;99.90;;;;;;5014384;28;20172;-82
2022/12/01 12:30:11;;;;;;;31.42;17.55;;;8.60;99.90;;;;;;5008550;28;20172;-80
2022/12/01 12:32:44;;;;;;;36.95;18.85;;;8.70;99.90;;;;;;5010582;28;20229;-86
2022/12/01 12:35:43;;;;;;;26.38;16.73;;;8.80;99.90;;;;;;5005258;28;20581;-81
2022/12/01 12:38:32;;;;;;;27.10;15.95;;;8.90;99.90;;;;;;5012865;28;20183;-80
2022/12/01 12:41:16;;;;;;;28.42;16.70;;;9.00;99.90;;;;;;5012764;28;20298;-83
2022/12/01 12:43:59;;;;;;;30.27;16.77;;;8.80;99.90;;;;;;4995178;28;20203;-80
2022/12/01 12:46:55;;;;;;;30.02;17.38;;;8.50;99.90;;;;;;5012199;28;20203;-81
2022/12/01 12:49:20;;;;;;;32.80;17.27;;;8.30;99.90;;;;;;5005936;28;20192;-81
2022/12/01 12:52:16;;;;;;;31.48;18.42;;;8.50;99.90;;;;;;5012609;28;20165;-79
2022/12/01 12:54:52;;;;;;;30.00;17.10;;;8.70;99.90;;;;;;5009441;28;20169;-80
2022/12/01 12:57:32;;;;;;;31.17;17.13;;;9.00;99.90;;;;;;4975702;28;20248;-80
2022/12/01 13:00:17;;;;;;;32.28;17.05;;;9.00;99.90;;;;;;4992865;28;20216;-78